Time;durP1;ratioP1;P1;durP2;ratioP2;P2;SDS_P1;SDS_P2;PMS_P1;PMS_P2;Temp;Humidity;BMP_temperature;BMP_pressure;BME280_temperature;BME280_humidity;BME280_pressure;Samples;Min_cycle;Max_cycle;Signal;HPM_P1;HPM_P2
2021/04/19 00:13:55;;;;;;;11.30;8.95;;;;;;;19.20;43.69;101471.41;31001824;28;20294;-57
2021/04/19 00:28:56;;;;;;;12.60;9.20;;;;;;;19.12;43.81;101466.69;31004217;28;20038;-56
2021/04/19 00:43:57;;;;;;;11.30;8.83;;;;;;;19.08;44.03;101462.59;31006137;28;20763;-58
2021/04/19 00:58:58;;;;;;;10.73;8.83;;;;;;;19.03;44.30;101464.72;31004515;28;20301;-58
2021/04/19 01:13:59;;;;;;;10.10;8.27;;;;;;;18.98;44.21;101480.88;30998249;28;20860;-56
2021/04/19 01:29:00;;;;;;;12.00;8.63;;;;;;;18.93;44.27;101474.28;30997218;28;20297;-56
2021/04/19 01:44:02;;;;;;;10.10;8.10;;;;;;;18.89;44.63;101472.81;30995013;28;20049;-56
2021/04/19 01:59:03;;;;;;;10.00;7.95;;;;;;;18.85;44.39;101472.19;30994076;28;20297;-56
2021/04/19 02:14:17;;;;;;;11.07;8.10;;;;;;;18.79;44.39;101470.00;30992857;28;20046;-57
2021/04/19 02:29:26;;;;;;;11.00;8.40;;;;;;;18.75;44.59;101482.53;30979799;28;20038;-57
2021/04/19 02:44:27;;;;;;;11.38;8.27;;;;;;;18.69;44.43;101479.47;30928826;28;20062;-58
2021/04/19 02:59:29;;;;;;;10.40;7.97;;;;;;;18.65;44.93;101470.16;30989850;28;20080;-55
2021/04/19 03:14:39;;;;;;;11.40;7.57;;;;;;;18.60;45.04;101465.22;30953186;28;20301;-57
2021/04/19 03:29:40;;;;;;;9.98;8.05;;;;;;;18.58;44.34;101465.31;31010699;28;20092;-57
2021/04/19 03:44:41;;;;;;;9.23;7.27;;;;;;;18.56;44.53;101461.13;31008257;28;20439;-55
2021/04/19 03:59:43;;;;;;;9.68;7.97;;;;;;;18.52;44.25;101486.81;31005698;28;20304;-56
2021/04/19 04:14:48;;;;;;;9.70;7.50;;;;;;;18.53;44.16;101471.84;31005088;28;20120;-56
2021/04/19 04:29:49;;;;;;;9.55;7.40;;;;;;;18.51;44.31;101486.91;31003173;28;20030;-54
2021/04/19 04:44:50;;;;;;;8.73;7.10;;;;;;;18.51;44.10;101500.06;31001999;28;20054;-55
2021/04/19 04:59:52;;;;;;;9.90;7.27;;;;;;;18.51;43.84;101495.66;31001036;28;20305;-56
2021/04/19 05:15:06;;;;;;;10.70;7.60;;;;;;;18.57;44.04;101473.31;30999328;28;20289;-52
2021/04/19 05:30:08;;;;;;;9.13;6.63;;;;;;;18.58;43.50;101483.75;31036958;28;20088;-56
2021/04/19 05:45:09;;;;;;;9.43;6.80;;;;;;;18.57;43.68;101492.59;31021512;28;20054;-57
2021/04/19 06:00:21;;;;;;;29.08;18.80;;;;;;;16.91;41.60;101493.31;30995444;28;20539;-55
2021/04/19 06:15:23;;;;;;;29.90;19.60;;;;;;;15.73;45.00;101500.56;31001685;28;20054;-55
2021/04/19 06:30:25;;;;;;;33.78;20.58;;;;;;;15.16;45.98;101510.84;30980128;28;20042;-55
2021/04/19 06:45:26;;;;;;;20.25;16.38;;;;;;;15.52;45.82;101500.03;30969746;28;20105;-51
2021/04/19 07:00:28;;;;;;;22.10;13.05;;;;;;;16.69;47.07;101491.16;31002593;28;20046;-57
2021/04/19 07:15:29;;;;;;;24.60;13.05;;;;;;;17.33;44.29;101503.72;30991489;28;20042;-55
2021/04/19 07:30:30;;;;;;;20.60;12.07;;;;;;;18.13;44.57;101480.78;30916311;28;20046;-58
2021/04/19 07:45:31;;;;;;;14.27;9.30;;;;;;;18.51;42.69;101474.63;30897616;28;20100;-54
2021/04/19 08:00:34;;;;;;;13.50;8.07;;;;;;;19.09;41.04;101501.16;30898723;28;20041;-64
2021/04/19 08:15:36;;;;;;;11.38;7.20;;;;;;;19.19;41.21;101493.41;30897719;28;20316;-59
2021/04/19 08:30:37;;;;;;;11.27;7.20;;;;;;;19.40;40.26;101496.25;30931824;28;20067;-58
2021/04/19 08:45:39;;;;;;;11.00;7.70;;;;;;;19.54;39.83;101461.78;30907229;28;20269;-57
2021/04/19 09:00:45;;;;;;;13.68;7.55;;;;;;;19.78;39.48;101443.25;30881734;28;20034;-59
2021/04/19 09:15:46;;;;;;;10.43;7.20;;;;;;;19.82;40.01;101439.41;30902193;28;20072;-59
2021/04/19 09:30:47;;;;;;;21.93;18.27;;;;;;;18.70;40.74;101433.78;30912228;28;20054;-56
2021/04/19 09:45:49;;;;;;;13.90;9.87;;;;;;;19.35;40.73;101450.94;30974353;28;20301;-60
2021/04/19 10:00:59;;;;;;;13.20;7.95;;;;;;;19.74;40.20;101439.16;30984351;28;20294;-59
2021/04/19 10:16:05;;;;;;;10.15;7.47;;;;;;;20.09;39.56;101438.22;30968110;28;20060;-59
2021/04/19 10:31:10;;;;;;;11.18;7.88;;;;;;;20.10;39.34;101424.06;30971256;28;20369;-53
2021/04/19 10:46:28;;;;;;;10.95;7.78;;;;;;;20.13;39.78;101418.53;30982949;28;20046;-57
2021/04/19 11:01:30;;;;;;;10.68;8.15;;;;;;;20.08;40.11;101428.63;30971391;28;20037;-56
2021/04/19 11:16:31;;;;;;;10.98;7.47;;;;;;;20.36;39.98;101411.41;30988929;28;20042;-57
2021/04/19 11:31:38;;;;;;;8.67;6.53;;;;;;;21.02;38.89;101415.78;30998324;28;20038;-57
2021/04/19 11:46:44;;;;;;;9.85;7.05;;;;;;;21.16;38.89;101404.03;31007658;28;20320;-56
2021/04/19 12:01:45;;;;;;;;;;;;;;;21.78;38.10;101391.72;30988635;28;20027;-54
2021/04/19 12:16:46;;;;;;;9.60;6.60;;;;;;;22.04;37.60;101377.06;30983798;28;19921;-58
2021/04/19 12:31:47;;;;;;;8.40;6.67;;;;;;;22.25;37.84;101363.75;30981928;28;20042;-57
2021/04/19 12:46:48;;;;;;;9.50;7.27;;;;;;;22.24;37.91;101342.69;30975196;28;20328;-58
2021/04/19 13:01:49;;;;;;;12.27;9.83;;;;;;;21.93;38.84;101325.06;30979350;28;20277;-58
2021/04/19 13:16:50;;;;;;;12.70;8.80;;;;;;;21.90;39.25;101293.59;30986246;28;20300;-56
2021/04/19 13:31:52;;;;;;;10.38;8.68;;;;;;;21.69;39.74;101275.16;30984208;28;20325;-57
2021/04/19 13:46:53;;;;;;;10.88;9.43;;;;;;;21.64;40.05;101255.38;30981994;28;20038;-57
2021/04/19 14:01:54;;;;;;;16.83;14.35;;;;;;;21.27;40.66;101240.88;30973997;28;20405;-56
2021/04/19 14:16:55;;;;;;;13.73;11.37;;;;;;;21.29;40.84;101217.81;30983649;28;20098;-57
2021/04/19 14:31:56;;;;;;;13.20;10.87;;;;;;;21.13;41.69;101205.09;30987208;28;20292;-55
2021/04/19 14:46:58;;;;;;;14.63;12.77;;;;;;;20.86;42.33;101188.97;30984062;28;20292;-56
2021/04/19 15:01:58;;;;;;;12.88;11.40;;;;;;;20.82;42.20;101177.84;30979453;28;20345;-57
2021/04/19 15:16:59;;;;;;;15.03;11.83;;;;;;;20.74;42.40;101167.09;31003885;28;20050;-57
2021/04/19 15:32:00;;;;;;;15.13;12.10;;;;;;;20.65;42.51;101168.72;31005699;28;20305;-53
2021/04/19 15:47:01;;;;;;;14.60;12.07;;;;;;;20.53;42.98;101150.44;30996558;28;20316;-55
2021/04/19 16:02:03;;;;;;;15.02;12.15;;;;;;;20.39;43.66;101147.16;30994906;28;20297;-57
2021/04/19 16:17:04;;;;;;;13.80;11.63;;;;;;;20.33;43.50;101150.31;30999752;28;20081;-57
2021/04/19 16:32:05;;;;;;;13.53;11.87;;;;;;;20.24;44.26;101148.44;30996929;28;20038;-55
2021/04/19 16:47:06;;;;;;;17.08;14.10;;;;;;;19.83;44.58;101142.16;30995163;28;20301;-58
2021/04/19 17:02:07;;;;;;;17.23;12.10;;;;;;;19.59;45.64;101142.38;30961571;28;20030;-55
2021/04/19 17:17:08;;;;;;;12.97;10.70;;;;;;;19.76;43.98;101138.38;30990567;28;20289;-54
2021/04/19 17:32:09;;;;;;;16.20;12.53;;;;;;;19.63;44.50;101143.78;31002542;28;20298;-56
2021/04/19 17:47:10;;;;;;;16.53;12.97;;;;;;;18.98;46.59;101145.47;30991432;28;20309;-54
2021/04/19 18:02:11;;;;;;;13.33;11.57;;;;;;;18.63;46.93;101164.84;30992102;28;20288;-56
2021/04/19 18:17:12;;;;;;;9.13;4.65;;;;;;;18.38;39.51;101176.41;30972537;28;20290;-57
2021/04/19 18:32:13;;;;;;;8.83;4.93;;;;;;;18.49;43.56;101197.47;30977967;28;20046;-56
2021/04/19 18:47:15;;;;;;;11.40;5.78;;;;;;;18.72;42.82;101232.59;30978292;28;20302;-58
2021/04/19 19:02:17;;;;;;;8.68;6.40;;;;;;;18.98;42.26;101230.59;30973793;28;20088;-58
2021/04/19 19:17:18;;;;;;;8.98;5.78;;;;;;;19.32;42.48;101232.41;30988722;28;20034;-62
2021/04/19 19:32:19;;;;;;;8.75;5.63;;;;;;;19.58;41.74;101223.25;30992587;28;20104;-57
2021/04/19 19:47:20;;;;;;;9.02;5.95;;;;;;;19.74;41.63;101212.34;30985928;28;20050;-58
2021/04/19 20:02:21;;;;;;;9.70;6.20;;;;;;;19.82;41.50;101202.00;31006590;28;20026;-59
2021/04/19 20:17:22;;;;;;;10.57;7.13;;;;;;;19.85;41.44;101187.72;31005538;28;20301;-59
2021/04/19 20:32:23;;;;;;;10.00;6.67;;;;;;;19.85;41.54;101188.56;31038135;28;20297;-60
2021/04/19 20:47:24;;;;;;;10.57;7.32;;;;;;;19.82;43.07;101180.91;31018745;28;20714;-56
2021/04/19 21:02:25;;;;;;;11.73;7.10;;;;;;;19.72;42.83;101158.88;30976259;28;20068;-56
2021/04/19 21:17:26;;;;;;;13.52;7.55;;;;;;;19.72;42.97;101147.50;30980455;28;20305;-57
2021/04/19 21:32:27;;;;;;;8.97;5.70;;;;;;;19.46;41.42;101131.97;30985703;28;20076;-57
2021/04/19 21:47:28;;;;;;;8.60;5.63;;;;;;;19.35;40.78;101150.44;30977777;28;20312;-57
2021/04/19 22:02:29;;;;;;;8.60;5.90;;;;;;;19.31;41.98;101146.38;30970184;28;20292;-57
2021/04/19 22:17:30;;;;;;;12.50;7.17;;;;;;;19.29;42.00;101151.78;30984741;28;20293;-57
2021/04/19 22:32:31;;;;;;;9.67;6.40;;;;;;;19.26;42.16;101157.28;30986016;28;20308;-57
2021/04/19 22:47:32;;;;;;;8.37;6.23;;;;;;;19.22;42.60;101167.25;30986172;28;20294;-57
2021/04/19 23:02:33;;;;;;;9.53;6.67;;;;;;;19.19;42.65;101167.47;30982449;28;20644;-55
2021/04/19 23:17:34;;;;;;;9.73;6.15;;;;;;;19.15;42.54;101158.16;30987134;28;20375;-58
2021/04/19 23:32:35;;;;;;;11.33;6.63;;;;;;;19.12;42.58;101154.91;31010656;28;20046;-56
2021/04/19 23:47:37;;;;;;;9.40;7.13;;;;;;;19.09;42.96;101134.94;31008578;28;20356;-55
